createdAt,value
2022-11-22T00:00:34.514Z,45.30
2022-11-22T00:05:36.654Z,45.24
2022-11-22T00:10:38.470Z,45.45
2022-11-22T00:15:40.268Z,45.34
2022-11-22T00:20:42.002Z,45.45
2022-11-22T00:25:45.024Z,45.44
2022-11-22T00:30:46.785Z,45.39
2022-11-22T00:35:48.547Z,45.57
2022-11-22T00:40:50.356Z,45.41
2022-11-22T00:45:52.143Z,45.53
2022-11-22T00:50:54.181Z,45.63
2022-11-22T00:55:55.949Z,46.12
2022-11-22T01:00:57.693Z,46.37
2022-11-22T01:05:59.553Z,46.60
2022-11-22T01:11:01.725Z,46.97
2022-11-22T01:16:06.889Z,47.17
2022-11-22T01:21:08.914Z,47.41
2022-11-22T01:26:12.538Z,47.34
2022-11-22T01:31:14.283Z,47.29
2022-11-22T01:36:16.125Z,47.43
2022-11-22T01:41:18.056Z,47.68
2022-11-22T01:46:39.550Z,47.64
2022-11-22T01:51:44.399Z,47.36
2022-11-22T01:56:50.956Z,47.74
2022-11-22T02:01:54.116Z,47.52
2022-11-22T02:07:07.087Z,47.42
2022-11-22T02:12:11.170Z,47.14
2022-11-22T02:17:13.224Z,47.65
2022-11-22T02:22:36.551Z,47.66
2022-11-22T02:27:38.599Z,47.21
2022-11-22T02:32:40.365Z,47.47
2022-11-22T02:37:42.718Z,47.70
2022-11-22T02:42:49.301Z,47.78
2022-11-22T02:47:51.176Z,47.62
2022-11-22T02:52:52.944Z,47.61
2022-11-22T02:57:55.046Z,47.47
2022-11-22T03:02:56.827Z,47.98
2022-11-22T03:07:58.626Z,48.29
2022-11-22T03:13:00.318Z,47.85
2022-11-22T03:18:04.376Z,47.91
2022-11-22T03:23:06.113Z,48.29
2022-11-22T03:28:08.078Z,48.71
2022-11-22T03:33:10.012Z,48.61
2022-11-22T03:38:11.834Z,48.94
2022-11-22T03:43:13.700Z,49.25
2022-11-22T03:48:15.473Z,49.40
2022-11-22T03:53:17.175Z,49.64
2022-11-22T03:58:18.840Z,49.51
2022-11-22T04:03:20.555Z,49.62
2022-11-22T04:08:22.731Z,49.60
2022-11-22T04:13:44.483Z,49.61
2022-11-22T04:18:46.267Z,49.50
2022-11-22T04:24:07.962Z,49.55
2022-11-22T04:29:10.480Z,49.66
2022-11-22T04:34:12.617Z,49.69
2022-11-22T04:39:15.605Z,49.59
2022-11-22T04:44:36.022Z,49.60
2022-11-22T04:49:37.972Z,49.74
2022-11-22T04:54:39.704Z,49.41
2022-11-22T04:59:41.381Z,49.37
2022-11-22T05:04:46.332Z,49.27
2022-11-22T05:09:52.071Z,49.25
2022-11-22T05:14:53.771Z,48.99
2022-11-22T05:19:55.544Z,48.91
2022-11-22T05:24:57.285Z,49.12
2022-11-22T05:29:58.933Z,49.08
2022-11-22T05:35:00.790Z,48.84
2022-11-22T05:40:03.073Z,48.68
2022-11-22T05:45:05.296Z,48.58
2022-11-22T05:50:07.395Z,48.24
2022-11-22T05:55:09.486Z,48.41
2022-11-22T06:00:11.624Z,48.46
2022-11-22T06:05:16.292Z,48.40
2022-11-22T06:10:18.026Z,48.41
2022-11-22T06:15:19.981Z,48.03
2022-11-22T06:20:21.844Z,48.12
2022-11-22T06:25:23.649Z,48.20
2022-11-22T06:30:25.441Z,48.10
2022-11-22T06:35:27.211Z,47.87
2022-11-22T06:40:28.952Z,47.71
2022-11-22T06:45:30.753Z,47.68
2022-11-22T06:50:32.548Z,47.57
2022-11-22T06:55:50.309Z,47.87
2022-11-22T07:00:52.997Z,47.96
2022-11-22T07:05:55.489Z,47.97
2022-11-22T07:11:04.554Z,47.90
2022-11-22T07:16:10.054Z,47.97
2022-11-22T07:21:14.458Z,47.97
2022-11-22T07:26:18.516Z,48.15
2022-11-22T07:31:20.990Z,48.30
2022-11-22T07:36:23.349Z,48.29
2022-11-22T07:41:25.256Z,48.23
2022-11-22T07:46:31.651Z,48.39
2022-11-22T07:51:33.801Z,48.34
2022-11-22T07:56:35.690Z,48.44
2022-11-22T08:01:37.648Z,48.33
2022-11-22T08:06:39.609Z,48.27
2022-11-22T08:11:41.390Z,48.28
2022-11-22T08:16:43.203Z,48.27
2022-11-22T08:21:45.501Z,48.20
2022-11-22T08:26:47.629Z,48.13
2022-11-22T08:31:49.872Z,48.17
2022-11-22T08:36:52.209Z,48.02
2022-11-22T08:41:55.559Z,47.93
2022-11-22T08:46:57.267Z,47.88
2022-11-22T08:51:58.938Z,47.77
2022-11-22T08:57:00.693Z,47.45
2022-11-22T09:02:03.188Z,47.30
2022-11-22T09:12:26.983Z,46.90
2022-11-22T09:17:28.796Z,46.45
2022-11-22T09:22:34.021Z,46.33
2022-11-22T09:27:35.844Z,46.11
2022-11-22T09:32:37.630Z,46.06
2022-11-22T09:37:39.362Z,45.53
2022-11-22T09:42:50.136Z,45.57
2022-11-22T09:48:14.695Z,45.25
2022-11-22T09:53:22.318Z,44.90
2022-11-22T09:58:30.886Z,44.99
2022-11-22T10:03:46.113Z,44.62
2022-11-22T10:09:00.149Z,43.82
2022-11-22T10:14:22.435Z,43.64
2022-11-22T10:19:35.387Z,43.37
2022-11-22T10:24:37.132Z,43.10
2022-11-22T10:29:51.500Z,42.26
2022-11-22T10:35:02.164Z,41.92
2022-11-22T10:40:49.640Z,41.23
2022-11-22T10:46:09.731Z,41.21
2022-11-22T10:51:39.805Z,40.76
2022-11-22T10:57:15.041Z,41.02
2022-11-22T11:02:25.897Z,40.89
2022-11-22T11:07:28.531Z,40.45
2022-11-22T11:13:08.905Z,40.56
2022-11-22T11:18:19.434Z,40.29
2022-11-22T11:23:21.186Z,40.39
2022-11-22T11:28:27.103Z,40.44
2022-11-22T11:33:35.032Z,40.19
2022-11-22T11:38:50.753Z,40.37
2022-11-22T11:43:54.994Z,40.15
2022-11-22T11:49:15.941Z,39.95
2022-11-22T11:54:20.657Z,39.85
2022-11-22T11:59:30.162Z,39.43
2022-11-22T12:04:36.415Z,39.73
2022-11-22T12:09:45.408Z,39.61
2022-11-22T12:15:10.930Z,40.05
2022-11-22T12:20:21.857Z,39.86
2022-11-22T12:25:33.807Z,40.05
2022-11-22T12:30:41.184Z,40.17
2022-11-22T12:35:45.002Z,40.44
2022-11-22T12:40:52.308Z,40.03
2022-11-22T12:45:58.079Z,40.21
2022-11-22T12:51:07.575Z,40.04
2022-11-22T12:56:28.410Z,39.91
2022-11-22T13:01:48.501Z,39.89
2022-11-22T13:07:01.802Z,39.62
2022-11-22T13:12:09.800Z,39.50
2022-11-22T13:17:14.962Z,39.52
2022-11-22T13:22:25.790Z,39.43
2022-11-22T13:27:37.295Z,39.28
2022-11-22T13:32:41.703Z,39.01
2022-11-22T13:37:56.820Z,39.36
2022-11-22T13:43:17.884Z,39.15
2022-11-22T13:48:39.108Z,39.23
2022-11-22T13:53:46.089Z,39.04
2022-11-22T13:58:51.183Z,39.27
2022-11-22T14:03:53.532Z,39.20
2022-11-22T14:09:16.851Z,39.22
2022-11-22T14:14:54.018Z,39.10
2022-11-22T14:20:18.638Z,39.26
2022-11-22T14:25:42.733Z,39.33
2022-11-22T14:30:54.239Z,39.18
2022-11-22T14:36:08.166Z,39.28
2022-11-22T14:41:28.109Z,39.28
2022-11-22T14:46:52.904Z,39.25
2022-11-22T14:51:57.567Z,39.41
2022-11-22T14:57:07.123Z,39.38
2022-11-22T15:02:46.686Z,39.45
2022-11-22T15:09:16.272Z,39.69
2022-11-22T15:13:44.520Z,39.75
2022-11-22T15:57:55.343Z,40.63
2022-11-22T16:03:01.805Z,40.64
2022-11-22T16:08:05.675Z,40.58
2022-11-22T16:13:34.892Z,40.44
2022-11-22T16:18:36.679Z,40.34
2022-11-22T16:23:43.045Z,40.35
2022-11-22T16:28:46.548Z,40.37
2022-11-22T16:33:48.640Z,40.47
2022-11-22T16:38:50.734Z,40.33
2022-11-22T16:44:01.223Z,40.37
2022-11-22T16:49:15.575Z,40.40
2022-11-22T16:54:19.697Z,40.47
2022-11-22T16:59:21.407Z,40.32
2022-11-22T17:04:26.243Z,40.41
2022-11-22T17:09:28.327Z,40.54
2022-11-22T17:14:30.636Z,40.27
2022-11-22T17:24:54.191Z,40.47
2022-11-22T17:29:55.928Z,40.66
2022-11-22T17:34:57.666Z,40.87
2022-11-22T17:39:59.501Z,41.06
2022-11-22T17:45:01.281Z,40.89
2022-11-22T17:50:03.367Z,40.80
2022-11-22T17:55:09.394Z,40.98
2022-11-22T18:00:14.192Z,41.20
2022-11-22T18:05:15.984Z,41.09
2022-11-22T18:10:17.849Z,40.99
2022-11-22T18:15:19.612Z,40.96
2022-11-22T18:20:21.396Z,40.62
2022-11-22T18:25:23.170Z,40.83
2022-11-22T18:30:24.943Z,40.79
2022-11-22T18:35:27.614Z,40.99
2022-11-22T18:40:29.434Z,40.89
2022-11-22T18:45:33.565Z,41.03
2022-11-22T18:50:36.369Z,41.02
2022-11-22T18:55:38.248Z,41.17
2022-11-22T19:00:40.092Z,41.04
2022-11-22T19:05:42.006Z,41.15
2022-11-22T19:10:44.109Z,41.19
2022-11-22T19:15:46.689Z,41.51
2022-11-22T19:20:55.129Z,41.54
2022-11-22T19:25:57.903Z,41.70
2022-11-22T19:31:02.670Z,41.86
2022-11-22T19:36:07.699Z,41.79
2022-11-22T19:41:22.507Z,41.88
2022-11-22T19:46:25.512Z,41.96
2022-11-22T19:51:29.899Z,41.97
2022-11-22T19:56:34.399Z,41.82
2022-11-22T20:02:17.697Z,41.91
2022-11-22T20:07:25.881Z,42.19
2022-11-22T20:12:27.956Z,42.22
2022-11-22T20:17:30.952Z,42.14
2022-11-22T20:22:34.375Z,42.12
2022-11-22T20:27:36.196Z,42.17
2022-11-22T20:32:41.722Z,42.25
2022-11-22T20:37:43.595Z,42.48
2022-11-22T20:42:45.477Z,42.49
2022-11-22T20:47:47.252Z,42.52
2022-11-22T20:52:49.546Z,42.44
2022-11-22T20:57:51.321Z,42.33
2022-11-22T21:02:53.063Z,42.49
2022-11-22T21:07:54.975Z,42.57
2022-11-22T21:12:57.594Z,42.69
2022-11-22T21:18:23.661Z,42.83
2022-11-22T21:23:21.812Z,42.97
2022-11-22T21:28:23.576Z,42.90
2022-11-22T21:33:25.878Z,43.23
2022-11-22T21:38:31.112Z,43.27
2022-11-22T21:43:48.797Z,43.30
2022-11-22T21:48:52.615Z,43.30
2022-11-22T21:54:01.976Z,43.57
2022-11-22T21:59:03.951Z,43.68
2022-11-22T22:04:06.130Z,43.77
2022-11-22T22:09:08.835Z,43.82
2022-11-22T22:14:14.603Z,43.71
2022-11-22T22:19:44.954Z,43.65
2022-11-22T22:24:46.728Z,43.56
2022-11-22T22:29:48.610Z,43.58
2022-11-22T22:34:50.383Z,43.26
2022-11-22T22:39:52.367Z,43.15
2022-11-22T22:44:54.251Z,43.22
2022-11-22T22:49:56.024Z,43.44
2022-11-22T22:54:57.902Z,43.94
2022-11-22T22:59:59.680Z,43.91
2022-11-22T23:05:01.455Z,43.94
2022-11-22T23:10:03.247Z,43.95
2022-11-22T23:15:06.037Z,43.92
2022-11-22T23:20:08.120Z,44.03
2022-11-22T23:25:10.616Z,43.89
2022-11-22T23:36:19.505Z,47.07
2022-11-22T23:41:23.639Z,43.72
2022-11-22T23:46:28.089Z,43.67
2022-11-22T23:51:31.385Z,43.74
2022-11-22T23:56:34.940Z,43.47
